sensor_id;sensor_type;location;lat;lon;timestamp;P1;durP1;ratioP1;P2;durP2;ratioP2
39694;SDS011;25367;-35.352;149.036;2023-04-30T03:58:57;6.53;;;0.82;;
39694;SDS011;25367;-35.352;149.036;2023-04-30T04:01:28;7.68;;;0.60;;
39694;SDS011;25367;-35.352;149.036;2023-04-30T04:03:58;2.85;;;0.90;;
39694;SDS011;25367;-35.352;149.036;2023-04-30T04:06:27;3.25;;;0.40;;
39694;SDS011;25367;-35.352;149.036;2023-04-30T04:08:57;0.65;;;0.30;;
39694;SDS011;25367;-35.352;149.036;2023-04-30T04:11:26;4.10;;;0.75;;
39694;SDS011;25367;-35.352;149.036;2023-04-30T04:13:59;3.88;;;0.95;;
39694;SDS011;25367;-35.352;149.036;2023-04-30T04:16:29;8.23;;;0.98;;
39694;SDS011;25367;-35.352;149.036;2023-04-30T04:18:58;7.10;;;0.77;;
39694;SDS011;25367;-35.352;149.036;2023-04-30T04:21:29;11.63;;;1.65;;
39694;SDS011;25367;-35.352;149.036;2023-04-30T04:23:59;9.45;;;0.85;;
39694;SDS011;25367;-35.352;149.036;2023-04-30T04:26:28;21.70;;;1.30;;
39694;SDS011;25367;-35.352;149.036;2023-04-30T04:29:00;18.77;;;1.67;;
39694;SDS011;25367;-35.352;149.036;2023-04-30T04:31:30;7.75;;;1.02;;
39694;SDS011;25367;-35.352;149.036;2023-04-30T04:33:59;18.00;;;2.13;;
39694;SDS011;25367;-35.352;149.036;2023-04-30T04:36:30;12.70;;;1.52;;
39694;SDS011;25367;-35.352;149.036;2023-04-30T04:38:59;12.38;;;1.40;;
39694;SDS011;25367;-35.352;149.036;2023-04-30T04:41:30;38.10;;;1.98;;
39694;SDS011;25367;-35.352;149.036;2023-04-30T04:44:03;13.65;;;1.13;;
39694;SDS011;25367;-35.352;149.036;2023-04-30T04:46:33;24.10;;;2.20;;
39694;SDS011;25367;-35.352;149.036;2023-04-30T04:49:03;15.38;;;1.50;;
39694;SDS011;25367;-35.352;149.036;2023-04-30T04:51:33;16.50;;;1.63;;
39694;SDS011;25367;-35.352;149.036;2023-04-30T04:54:02;6.60;;;0.80;;
39694;SDS011;25367;-35.352;149.036;2023-04-30T04:56:31;7.53;;;0.93;;
39694;SDS011;25367;-35.352;149.036;2023-04-30T04:59:03;4.18;;;2.08;;
39694;SDS011;25367;-35.352;149.036;2023-04-30T05:01:32;10.35;;;5.10;;
39694;SDS011;25367;-35.352;149.036;2023-04-30T05:04:02;7.32;;;4.38;;
39694;SDS011;25367;-35.352;149.036;2023-04-30T05:06:31;11.70;;;4.78;;
39694;SDS011;25367;-35.352;149.036;2023-04-30T05:09:00;6.93;;;3.85;;
39694;SDS011;25367;-35.352;149.036;2023-04-30T05:11:30;9.77;;;5.80;;
39694;SDS011;25367;-35.352;149.036;2023-04-30T05:13:59;12.38;;;6.70;;
39694;SDS011;25367;-35.352;149.036;2023-04-30T05:16:31;14.65;;;8.95;;
39694;SDS011;25367;-35.352;149.036;2023-04-30T05:19:01;12.45;;;8.45;;
39694;SDS011;25367;-35.352;149.036;2023-04-30T05:21:30;17.05;;;11.82;;
39694;SDS011;25367;-35.352;149.036;2023-04-30T05:24:00;25.02;;;16.52;;
39694;SDS011;25367;-35.352;149.036;2023-04-30T05:26:29;25.77;;;20.38;;
39694;SDS011;25367;-35.352;149.036;2023-04-30T05:28:59;32.85;;;27.00;;
39694;SDS011;25367;-35.352;149.036;2023-04-30T05:31:31;42.23;;;34.07;;
39694;SDS011;25367;-35.352;149.036;2023-04-30T05:34:01;49.78;;;40.03;;
39694;SDS011;25367;-35.352;149.036;2023-04-30T05:36:31;59.92;;;46.10;;
39694;SDS011;25367;-35.352;149.036;2023-04-30T05:39:01;67.78;;;53.22;;
39694;SDS011;25367;-35.352;149.036;2023-04-30T05:41:30;67.68;;;57.17;;
39694;SDS011;25367;-35.352;149.036;2023-04-30T05:43:59;69.60;;;57.85;;
39694;SDS011;25367;-35.352;149.036;2023-04-30T05:46:32;78.00;;;65.00;;
39694;SDS011;25367;-35.352;149.036;2023-04-30T05:49:01;79.95;;;65.60;;
39694;SDS011;25367;-35.352;149.036;2023-04-30T05:51:31;76.50;;;65.45;;
39694;SDS011;25367;-35.352;149.036;2023-04-30T05:54:00;80.10;;;66.63;;
39694;SDS011;25367;-35.352;149.036;2023-04-30T05:56:29;82.30;;;63.42;;
39694;SDS011;25367;-35.352;149.036;2023-04-30T05:58:59;78.60;;;64.18;;
39694;SDS011;25367;-35.352;149.036;2023-04-30T06:01:31;86.67;;;66.97;;
39694;SDS011;25367;-35.352;149.036;2023-04-30T06:04:01;77.78;;;66.13;;
39694;SDS011;25367;-35.352;149.036;2023-04-30T06:06:30;78.70;;;63.97;;
39694;SDS011;25367;-35.352;149.036;2023-04-30T06:09:00;85.80;;;63.78;;
39694;SDS011;25367;-35.352;149.036;2023-04-30T06:11:29;79.78;;;61.83;;
39694;SDS011;25367;-35.352;149.036;2023-04-30T06:13:58;77.57;;;60.67;;
39694;SDS011;25367;-35.352;149.036;2023-04-30T06:16:33;79.00;;;60.80;;
39694;SDS011;25367;-35.352;149.036;2023-04-30T06:19:03;77.43;;;58.80;;
39694;SDS011;25367;-35.352;149.036;2023-04-30T06:21:32;69.50;;;52.40;;
39694;SDS011;25367;-35.352;149.036;2023-04-30T06:24:02;54.65;;;45.90;;
39694;SDS011;25367;-35.352;149.036;2023-04-30T06:26:31;51.08;;;43.72;;
39694;SDS011;25367;-35.352;149.036;2023-04-30T06:29:06;49.85;;;43.30;;
39694;SDS011;25367;-35.352;149.036;2023-04-30T06:31:36;47.13;;;40.80;;
39694;SDS011;25367;-35.352;149.036;2023-04-30T06:34:05;50.30;;;43.35;;
39694;SDS011;25367;-35.352;149.036;2023-04-30T06:36:34;45.30;;;40.22;;
39694;SDS011;25367;-35.352;149.036;2023-04-30T06:39:04;49.33;;;43.80;;
39694;SDS011;25367;-35.352;149.036;2023-04-30T06:41:33;47.95;;;40.72;;
39694;SDS011;25367;-35.352;149.036;2023-04-30T06:44:11;48.85;;;40.28;;
39694;SDS011;25367;-35.352;149.036;2023-04-30T06:46:41;49.50;;;41.03;;
39694;SDS011;25367;-35.352;149.036;2023-04-30T06:49:11;46.90;;;40.13;;
39694;SDS011;25367;-35.352;149.036;2023-04-30T10:45:08;16.52;;;10.45;;
